AirNav   Pilot Hours Calculator
 
 883 users online  

66IL Aerogrange Airport
Marengo, Illinois, USA

GOING TO MARENGO?


FAA INFORMATION EFFECTIVE 01 DECEMBER 2022

Location

FAA Identifier: 66IL
Lat/Long: 42-16-07.4600N 088-34-16.6650W
42-16.124333N 088-34.277750W
42.2687389,-88.5712958
(estimated)
Elevation: 824 ft. / 251 m (estimated)
Variation: 00W (1985)
From city: 3 miles E of MARENGO, IL
Time zone: UTC -6 (UTC -5 during Daylight Saving Time)
Zip code: 60152

Airport Operations

Airport use: Private use. Permission required prior to landing
Activation date: 02/1969
Control tower: no
ARTCC: CHICAGO CENTER
FSS: KANKAKEE FLIGHT SERVICE STATION
Attendance: UNATNDD
Wind indicator: yes
Segmented circle: no

Nearby radio navigation aids

VOR radial/distance  VOR name  Freq  Var
DPAr335/24.7DUPAGE VOR/DME108.4002E
OBKr278/27.7NORTHBROOK VOR/DME113.0002W
JVLr123/29.3JANESVILLE VOR/DME114.3003E

Airport Services

Airframe service: NONE
Powerplant service: NONE

Runway Information

Runway 12/30

Dimensions: 2050 x 100 ft. / 625 x 30 m
Surface: turf
RUNWAY 12  RUNWAY 30
Latitude: 42-16.203833N42-16.044833N
Longitude: 088-34.478167W088-34.077333W
Elevation: 820.0 ft.824.0 ft.
Traffic pattern: rightleft
Runway heading: 118 magnetic, 118 true298 magnetic, 298 true
Displaced threshold: no144 ft.
Obstructions: none4 ft. trees, 4 ft. from runway

Airport Ownership and Management from official FAA records

Ownership: Privately-owned
Owner: ADOLPH RALPH SVEC
19009 RIVER RD
MARENGO, IL 60152
Phone (815) 568-6652
Manager: ADOLPH RALPH SVEC
19009 RIVER RD
MARENGO, IL 60152
Phone (815) 568-6652

Airport Operational Statistics

Aircraft based on the field: 6
Single engine airplanes: 6
    

Additional Remarks

FOR CD CTC CHICAGO APCH AT 847-289-0926.
FOR NON EMERG USE, PLS PHONE AND/OR EMAIL 24 HRS PRIOR TO ARRIVAL.

Instrument Procedures

There are no published instrument procedures at 66IL.

Some nearby airports with instrument procedures:

3CK - Lake in the Hills Airport (12 nm E)
10C - Galt Field Airport (12 nm NE)
C77 - Poplar Grove Airport (12 nm W)
KDKB - De Kalb Taylor Municipal Airport (21 nm S)
C02 - Grand Geneva Resort Airport (22 nm N)
 
Loc | Ops | Rwys | IFR | FBO | Links
Com | Nav | Svcs | Stats | Notes
Area around 66IL (Aerogrange Airport)
 
Road maps at: MapQuest Bing Google
 
Aerial photo
No photo
 
Sectional chart

 
Airport distance calculator
Flying to Aerogrange Airport? Find the distance to fly.

From to 66IL

Sunrise and sunset
Times for 07-Dec-2022
 Local
(UTC-6)
 Zulu
(UTC)
Morning civil twilight06:3912:39
Sunrise07:1113:11
Sunset16:2122:21
Evening civil twilight16:5322:53

Current date and time
Zulu (UTC)  07-Dec-2022 12:27:48
Local (UTC-6)  07-Dec-2022 06:27:48
 
METAR
KDKB 
21nm S 
071215Z AUTO 12003KT 1/2SM FG OVC002 00/00 A3018 RMK AO2 T00040004
KRFD 
24nm W 
071154Z 00000KT 6SM BR OVC014 01/M01 A3018 RMK AO2 SLP226 I6000 T00061011 10011 21039 53010
KDPA 
26nm SE 
071152Z 00000KT 1/4SM R02L/1800FT FG VV002 02/02 A3017 RMK AO2 SLP222 T00220022 10039 20006 53013
K06C 
27nm SE 
071215Z AUTO 00000KT 1/4SM OVC003 02/02 A3017 RMK AO2 T00210021
KBUU 
28nm NE 
071215Z AUTO 00000KT 1/4SM OVC002 M01/M01 A3017 RMK AO2 T10121012 PWINO
KJVL 
29nm NW 
071145Z 00000KT 1/4SM FZFG OVC001 M01/M01 A3016
KARR 
30nm S 
071207Z AUTO 00000KT 2 1/2SM BR FEW003 OVC017 02/01 A3018 RMK AO2 T00170011
KPWK 
31nm E 
071152Z 32005KT 10SM OVC003 03/02 A3019 RMK AO2 SLP227 T00330022 10039 20006 53014
KRPJ 
32nm SW 
071215Z AUTO 00000KT 5SM BR OVC012 03/02 A3018 RMK AO2 T00280021 TSNO
KUGN 
32nm E 
071155Z 00000KT 1/2SM FG VV002 02/01 A3016 RMK AO2 SLP223 T00220011 10033 20017 51012
TAF
KRFD 
24nm W 
071120Z 0712/0812 VRB03KT 6SM BR OVC010 TEMPO 0712/0715 1SM BR OVC005 FM071800 31005KT P6SM BKN015 FM072100 35005KT P6SM BKN025 FM080100 01005KT P6SM SCT025 BKN100
KDPA 
26nm SE 
071120Z 0712/0812 VRB03KT 1/2SM FG OVC003 TEMPO 0712/0714 1/4SM FG VV002 FM071500 33004KT 3SM BR OVC004 FM071800 32008KT P6SM BKN010 FM072100 35006KT P6SM BKN025 FM080200 01005KT P6SM SCT010 BKN020
KJVL 
29nm NW 
071125Z 0712/0812 00000KT 1/4SM FZFG OVC002 FM071500 00000KT 3SM BR OVC011 FM071800 VRB03KT P6SM OVC013 FM072100 33006KT P6SM SCT020 FM080200 02005KT P6SM BKN025 FM080800 VRB03KT 3SM BR FEW009 BKN019
NOTAMs
Click for the latest NOTAMs
NOTAMs are issued by the DoD/FAA and will open in a separate window not controlled by AirNav.

 

 
 

Would you like to see your business listed on this page?

 If your business provides an interesting product or service to pilots, flight crews, aircraft, or users of the Aerogrange Airport, you should consider listing it here.  To start the listing process, click on the button below
 
Add a business
 

Other Pages about Aerogrange Airport

Update a link
 
Copyright © AirNav, LLC. All rights reserved. Privacy Policy  Contact